Mattoon, Kentucky
Current Conditions -  °F | °C
As of 12:15 PM on Sunday 25 Jan 2015 (Local Time) from K5M9 Reporting Station
Moderate Rain Moderate Rain  
Wind Chill: 36°   Ceiling: 3600
Heat Index: 40°   Visibility: 5mi
Dew Point: 39°   Wind: 6mph
Humidity: 97%   Direction: 200°SSW
Pressure: 29.61"   Gusts: NA
Location:  37.3359°N, 88.1049°W
Report Text: K5M9 251815Z AUTO 20005KT 5SM RA SCT014 SCT024 OVC036 05/04 A2961 RMK AO2 T00450040
Loading
Personal Weather Stations






























Interactive Weather Map New forecast layout! Learn more

10-Day Weather Forecast

Advertisements
Track Severe Weather on mobile